Wetterstation Vordersexau
Wetterdaten: Woche 17.12.12 - 23.12.12 (KW51)
Datum Zeit Temp. A. Feuchte A. Luftdruck Regen Wind Richtung Taupunkt Windchill Windben
17.12.2012 00:00 6,6 C 86 % 1006,6 hPa 0,4 l/m 17,5 km/h W 4,4 C -0,1 C 9,7 km/h
17.12.2012 01:00 7,1 C 84 % 1006,4 hPa 0,0 l/m 19,4 km/h W-SW 4,6 C -0,2 C 10,8 km/h
17.12.2012 02:00 7,3 C 83 % 1005,8 hPa 0,0 l/m 20,1 km/h SW 4,6 C -0,2 C 11,2 km/h
17.12.2012 03:00 7,6 C 83 % 1005,5 hPa 0,0 l/m 24,0 km/h W-NW 4,9 C -1,1 C 13,3 km/h
17.12.2012 04:00 7,5 C 84 % 1006,1 hPa 0,0 l/m 18,8 km/h W-SW 5,0 C 0,5 C 10,4 km/h
17.12.2012 05:00 7,2 C 85 % 1006,0 hPa 0,0 l/m 15,6 km/h W-SW 4,9 C 1,5 C 8,6 km/h
17.12.2012 06:00 6,8 C 86 % 1006,4 hPa 0,0 l/m 20,1 km/h W 4,6 C -0,9 C 11,2 km/h
17.12.2012 07:00 6,8 C 86 % 1006,6 hPa 0,0 l/m 16,2 km/h W-SW 4,6 C 0,7 C 9,0 km/h
17.12.2012 08:00 7,2 C 85 % 1007,0 hPa 0,0 l/m 23,3 km/h W-SW 4,9 C -1,4 C 13,0 km/h
17.12.2012 09:00 7,6 C 84 % 1007,4 hPa 0,0 l/m 24,0 km/h SW 5,1 C -1,1 C 13,3 km/h
17.12.2012 10:00 8,1 C 82 % 1007,8 hPa 0,0 l/m 26,6 km/h W 5,2 C -1,2 C 14,8 km/h
17.12.2012 11:00 8,5 C 80 % 1008,1 hPa 0,0 l/m 21,4 km/h W 5,3 C 0,9 C 11,9 km/h
17.12.2012 12:00 9,9 C 76 % 1007,6 hPa 0,0 l/m 18,1 km/h W 5,9 C 3,8 C 10,1 km/h
17.12.2012 13:00 9,6 C 78 % 1007,0 hPa 0,0 l/m 16,2 km/h W 6,0 C 4,2 C 9,0 km/h
17.12.2012 14:00 8,8 C 79 % 1006,5 hPa 0,0 l/m 18,1 km/h W-SW 5,4 C 2,4 C 10,1 km/h
17.12.2012 15:00 8,3 C 80 % 1006,5 hPa 0,0 l/m 24,0 km/h W-SW 5,1 C -0,2 C 13,3 km/h
17.12.2012 16:00 7,2 C 84 % 1006,6 hPa 0,0 l/m 20,7 km/h W-SW 4,7 C -0,6 C 11,5 km/h
17.12.2012 17:00 7,5 C 83 % 1007,0 hPa 0,0 l/m 22,7 km/h W 4,8 C -0,9 C 12,6 km/h
17.12.2012 18:00 6,3 C 86 % 1007,3 hPa 0,7 l/m 11,7 km/h N-NW 4,1 C 2,4 C 6,5 km/h
17.12.2012 19:00 6,1 C 86 % 1008,1 hPa 0,4 l/m 1,3 km/h W-SW 3,9 C 6,1 C 0,7 km/h
17.12.2012 20:00 5,9 C 84 % 1008,0 hPa 0,4 l/m 4,5 km/h W-NW 3,4 C 5,9 C 2,5 km/h
17.12.2012 21:00 6,1 C 86 % 1008,5 hPa 0,4 l/m 5,8 km/h W-SW 3,9 C 6,1 C 3,2 km/h
17.12.2012 22:00 6,2 C 86 % 1008,9 hPa 0,0 l/m 14,9 km/h W-SW 4,0 C 0,6 C 8,3 km/h
17.12.2012 23:00 5,6 C 86 % 1009,1 hPa 0,0 l/m 0,6 km/h W 3,4 C 5,6 C 0,4 km/h
18.12.2012 00:00 5,4 C 86 % 1009,6 hPa 0,4 l/m 14,9 km/h W 3,3 C -0,4 C 8,3 km/h
18.12.2012 01:00 5,2 C 86 % 1009,7 hPa 0,0 l/m 10,4 km/h W 3,1 C 2,0 C 5,8 km/h
18.12.2012 02:00 5,1 C 86 % 1009,9 hPa 0,0 l/m 3,9 km/h W-NW 3,0 C 5,1 C 2,2 km/h
18.12.2012 03:00 5,2 C 86 % 1010,3 hPa 0,0 l/m 29,2 km/h W-NW 3,1 C -5,9 C 16,2 km/h
18.12.2012 04:00 4,8 C 86 % 1010,4 hPa 0,0 l/m 0,0 km/h W 2,7 C 4,8 C 0,0 km/h
18.12.2012 05:00 4,9 C 86 % 1010,6 hPa 0,0 l/m 2,6 km/h N 2,8 C 4,9 C 1,4 km/h
18.12.2012 06:00 4,5 C 86 % 1011,0 hPa 0,0 l/m 0,0 km/h NO 2,4 C 4,5 C 0,0 km/h
18.12.2012 07:00 4,2 C 85 % 1011,4 hPa 0,4 l/m 0,0 km/h W 1,9 C 4,2 C 0,0 km/h
18.12.2012 08:00 4,9 C 86 % 1011,6 hPa 0,0 l/m 7,1 km/h S-SW 2,8 C 4,3 C 4,0 km/h
18.12.2012 09:00 5,3 C 86 % 1012,0 hPa 0,0 l/m 25,9 km/h W 3,2 C -4,8 C 14,4 km/h
18.12.2012 10:00 6,1 C 84 % 1012,3 hPa 0,0 l/m 0,0 km/h W-NW 3,6 C 6,1 C 0,0 km/h
18.12.2012 11:00 6,6 C 83 % 1012,2 hPa 0,0 l/m 3,2 km/h W-NW 3,9 C 6,6 C 1,8 km/h
18.12.2012 12:00 6,3 C 83 % 1012,0 hPa 0,0 l/m 10,4 km/h W-SW 3,6 C 3,2 C 5,8 km/h
18.12.2012 13:00 5,7 C 86 % 1011,9 hPa 0,0 l/m 0,0 km/h W 3,5 C 5,7 C 0,0 km/h
18.12.2012 14:00 6,2 C 85 % 1011,8 hPa 0,4 l/m 0,0 km/h NW 3,9 C 6,2 C 0,0 km/h
18.12.2012 15:00 5,8 C 86 % 1012,6 hPa 0,0 l/m 6,5 km/h NW 3,6 C 5,7 C 3,6 km/h
18.12.2012 16:00 5,1 C 86 % 1013,5 hPa 0,0 l/m 0,0 km/h NW 3,0 C 5,1 C 0,0 km/h
18.12.2012 17:00 4,6 C 86 % 1014,4 hPa 0,0 l/m 0,0 km/h NW 2,5 C 4,6 C 0,0 km/h
18.12.2012 18:00 4,3 C 86 % 1015,2 hPa 0,0 l/m 0,0 km/h O 2,2 C 4,3 C 0,0 km/h
18.12.2012 19:00 4,1 C 85 % 1016,0 hPa 0,7 l/m 0,0 km/h SO 1,8 C 4,1 C 0,0 km/h
18.12.2012 20:00 4,1 C 84 % 1016,5 hPa 0,4 l/m 0,0 km/h S-SO 1,6 C 4,1 C 0,0 km/h
18.12.2012 21:00 4,1 C 83 % 1016,7 hPa 0,7 l/m 2,6 km/h S-SO 1,5 C 4,1 C 1,4 km/h
18.12.2012 22:00 3,9 C 82 % 1017,4 hPa 0,0 l/m 0,0 km/h S-SO 1,1 C 3,9 C 0,0 km/h
18.12.2012 23:00 3,9 C 81 % 1018,0 hPa 0,0 l/m 0,0 km/h SO 0,9 C 3,9 C 0,0 km/h
19.12.2012 00:00 4,1 C 80 % 1018,5 hPa 0,0 l/m 0,0 km/h SO 1,0 C 4,1 C 0,0 km/h
19.12.2012 01:00 4,1 C 79 % 1018,5 hPa 0,0 l/m 0,0 km/h SO 0,8 C 4,1 C 0,0 km/h
19.12.2012 02:00 4,1 C 79 % 1018,8 hPa 0,0 l/m 0,0 km/h SO 0,8 C 4,1 C 0,0 km/h
19.12.2012 03:00 4,2 C 78 % 1019,1 hPa 0,0 l/m 0,0 km/h SO 0,7 C 4,2 C 0,0 km/h
19.12.2012 04:00 4,3 C 78 % 1019,3 hPa 0,0 l/m 0,0 km/h SO 0,8 C 4,3 C 0,0 km/h
19.12.2012 05:00 4,3 C 78 % 1019,4 hPa 0,0 l/m 0,0 km/h SO 0,8 C 4,3 C 0,0 km/h
19.12.2012 06:00 4,2 C 78 % 1019,7 hPa 0,4 l/m 0,0 km/h O-SO 0,7 C 4,2 C 0,0 km/h
19.12.2012 07:00 3,9 C 78 % 1020,0 hPa 0,0 l/m 0,0 km/h S-SO 0,4 C 3,9 C 0,0 km/h
19.12.2012 08:00 3,3 C 79 % 1020,5 hPa 0,0 l/m 0,0 km/h S-SO 0,0 C 3,3 C 0,0 km/h
19.12.2012 09:00 4,1 C 76 % 1020,6 hPa 0,0 l/m 0,0 km/h O 0,3 C 4,1 C 0,0 km/h
19.12.2012 10:00 6,1 C 73 % 1021,2 hPa 0,0 l/m 0,0 km/h O 1,6 C 6,1 C 0,0 km/h
19.12.2012 11:00 7,6 C 77 % 1021,0 hPa 0,0 l/m 0,0 km/h O 3,8 C 7,6 C 0,0 km/h
19.12.2012 12:00 11,2 C 81 % 1020,8 hPa 0,0 l/m 0,0 km/h NW 8,1 C 11,2 C 0,0 km/h
19.12.2012 13:00 9,8 C 75 % 1020,2 hPa 0,0 l/m 0,0 km/h N-NW 5,6 C 9,8 C 0,0 km/h
19.12.2012 14:00 9,8 C 74 % 1019,8 hPa 0,0 l/m 0,0 km/h N-NO 5,4 C 9,8 C 0,0 km/h
19.12.2012 15:00 11,8 C 70 % 1019,7 hPa 0,0 l/m 0,0 km/h N 6,5 C 11,8 C 0,0 km/h
19.12.2012 16:00 9,3 C 71 % 1020,1 hPa 0,0 l/m 0,0 km/h S-SO 4,3 C 9,3 C 0,0 km/h
19.12.2012 17:00 3,2 C 84 % 1020,4 hPa 0,0 l/m 0,0 km/h NO 0,8 C 3,2 C 0,0 km/h
19.12.2012 18:00 1,8 C 86 % 1020,2 hPa 0,0 l/m 0,0 km/h NO -0,3 C 1,8 C 0,0 km/h
19.12.2012 19:00 0,7 C 86 % 1020,0 hPa 0,0 l/m 0,0 km/h S-SO -1,4 C 0,7 C 0,0 km/h
19.12.2012 20:00 -0,1 C 86 % 1020,0 hPa 0,0 l/m 0,0 km/h SO -2,2 C -0,1 C 0,0 km/h
19.12.2012 21:00 -1,0 C 86 % 1019,6 hPa 0,0 l/m 0,0 km/h O-SO -3,0 C -1,0 C 0,0 km/h
19.12.2012 22:00 -1,4 C 85 % 1019,3 hPa 0,0 l/m 0,0 km/h SO -3,6 C -1,4 C 0,0 km/h
19.12.2012 23:00 -1,2 C 84 % 1018,5 hPa 0,0 l/m 0,0 km/h O-SO -3,5 C -1,2 C 0,0 km/h
20.12.2012 00:00 -1,7 C 84 % 1018,3 hPa 0,0 l/m 0,0 km/h NO -4,0 C -1,7 C 0,0 km/h
20.12.2012 01:00 -1,4 C 83 % 1017,5 hPa 0,0 l/m 0,0 km/h O-SO -3,9 C -1,4 C 0,0 km/h
20.12.2012 02:00 -1,5 C 83 % 1017,0 hPa 0,0 l/m 0,0 km/h O-SO -4,0 C -1,5 C 0,0 km/h
20.12.2012 03:00 -1,4 C 83 % 1016,6 hPa 0,0 l/m 0,0 km/h O-SO -3,9 C -1,4 C 0,0 km/h
20.12.2012 04:00 -2,1 C 82 % 1015,9 hPa 0,0 l/m 0,0 km/h SO -4,7 C -2,1 C 0,0 km/h
20.12.2012 05:00 -2,5 C 83 % 1015,5 hPa 0,0 l/m 0,0 km/h SO -5,0 C -2,5 C 0,0 km/h
20.12.2012 06:00 -2,4 C 83 % 1014,4 hPa 0,0 l/m 0,0 km/h O-NO -4,9 C -2,4 C 0,0 km/h
20.12.2012 07:00 -2,6 C 83 % 1014,7 hPa 0,0 l/m 0,0 km/h SO -5,1 C -2,6 C 0,0 km/h
20.12.2012 08:00 -1,7 C 82 % 1013,8 hPa 0,0 l/m 0,0 km/h O-SO -4,4 C -1,7 C 0,0 km/h
20.12.2012 09:00 -0,4 C 80 % 1013,4 hPa 0,0 l/m 0,0 km/h O-SO -3,4 C -0,4 C 0,0 km/h
20.12.2012 10:00 0,2 C 79 % 1013,6 hPa 0,0 l/m 0,0 km/h O-SO -3,0 C 0,2 C 0,0 km/h
20.12.2012 11:00 1,4 C 78 % 1012,9 hPa 0,0 l/m 0,0 km/h O-SO -2,0 C 1,4 C 0,0 km/h
20.12.2012 12:00 2,4 C 76 % 1013,2 hPa 0,0 l/m 0,0 km/h O-SO -1,4 C 2,4 C 0,0 km/h
20.12.2012 13:00 2,5 C 79 % 1012,3 hPa 0,0 l/m 0,0 km/h O-SO -0,8 C 2,5 C 0,0 km/h
20.12.2012 14:00 2,6 C 80 % 1011,3 hPa 0,4 l/m 0,0 km/h O-SO -0,5 C 2,6 C 0,0 km/h
20.12.2012 15:00 2,4 C 80 % 1010,8 hPa 0,4 l/m 0,0 km/h O-SO -0,7 C 2,4 C 0,0 km/h
20.12.2012 16:00 1,9 C 80 % 1010,2 hPa 0,7 l/m 0,0 km/h NW -1,2 C 1,9 C 0,0 km/h
20.12.2012 17:00 1,7 C 79 % 1009,6 hPa 1,1 l/m 0,0 km/h NW -1,5 C 1,7 C 0,0 km/h
20.12.2012 18:00 1,5 C 79 % 1009,3 hPa 0,7 l/m 0,0 km/h NW -1,7 C 1,5 C 0,0 km/h
20.12.2012 19:00 1,6 C 78 % 1009,1 hPa 0,4 l/m 0,0 km/h NW -1,8 C 1,6 C 0,0 km/h
20.12.2012 20:00 1,8 C 77 % 1009,3 hPa 0,7 l/m 0,0 km/h N-NW -1,8 C 1,8 C 0,0 km/h
20.12.2012 21:00 1,9 C 76 % 1009,1 hPa 0,4 l/m 0,0 km/h O-SO -1,9 C 1,9 C 0,0 km/h
20.12.2012 22:00 2,3 C 75 % 1008,8 hPa 0,7 l/m 0,0 km/h NO -1,7 C 2,3 C 0,0 km/h
20.12.2012 23:00 3,9 C 72 % 1008,7 hPa 0,0 l/m 1,3 km/h NW -0,7 C 3,9 C 0,7 km/h
21.12.2012 00:00 5,5 C 68 % 1008,5 hPa 0,4 l/m 5,2 km/h W-SW 0,1 C 5,5 C 2,9 km/h
21.12.2012 01:00 7,2 C 68 % 1008,6 hPa 0,0 l/m 2,6 km/h W 1,7 C 7,2 C 1,4 km/h
21.12.2012 02:00 7,5 C 82 % 1008,5 hPa 0,0 l/m 12,3 km/h W-SW 4,6 C 3,5 C 6,8 km/h
21.12.2012 03:00 7,9 C 86 % 1008,8 hPa 0,0 l/m 5,8 km/h W-SW 5,7 C 7,9 C 3,2 km/h
21.12.2012 04:00 8,1 C 86 % 1008,9 hPa 0,0 l/m 16,2 km/h W 5,9 C 2,3 C 9,0 km/h
21.12.2012 05:00 7,8 C 86 % 1008,7 hPa 0,0 l/m 20,7 km/h W-NW 5,6 C 0,2 C 11,5 km/h
21.12.2012 06:00 7,8 C 86 % 1008,7 hPa 0,0 l/m 18,8 km/h W-NW 5,6 C 0,9 C 10,4 km/h
21.12.2012 07:00 7,6 C 86 % 1008,9 hPa 0,0 l/m 17,5 km/h W 5,4 C 1,1 C 9,7 km/h
21.12.2012 08:00 7,6 C 85 % 1009,2 hPa 0,0 l/m 4,5 km/h W 5,2 C 7,6 C 2,5 km/h
21.12.2012 09:00 7,8 C 86 % 1009,8 hPa 0,0 l/m 1,9 km/h W-SW 5,6 C 7,8 C 1,1 km/h
21.12.2012 10:00 7,4 C 85 % 1010,4 hPa 0,0 l/m 13,0 km/h W 5,0 C 3,0 C 7,2 km/h
21.12.2012 11:00 8,5 C 84 % 1010,8 hPa 0,0 l/m 7,8 km/h W 6,0 C 7,4 C 4,3 km/h
21.12.2012 12:00 8,9 C 82 % 1010,8 hPa 0,0 l/m 18,8 km/h W-SW 6,0 C 2,3 C 10,4 km/h
21.12.2012 13:00 9,9 C 77 % 1010,8 hPa 0,0 l/m 10,4 km/h W 6,1 C 7,3 C 5,8 km/h
21.12.2012 14:00 9,5 C 78 % 1010,6 hPa 0,0 l/m 11,7 km/h W-NW 5,9 C 6,1 C 6,5 km/h
21.12.2012 15:00 8,9 C 79 % 1010,9 hPa 0,0 l/m 0,6 km/h W-NW 5,5 C 8,9 C 0,4 km/h
21.12.2012 16:00 8,4 C 80 % 1011,5 hPa 0,0 l/m 10,4 km/h W 5,2 C 5,6 C 5,8 km/h
21.12.2012 17:00 7,8 C 83 % 1012,3 hPa 0,0 l/m 2,6 km/h SO 5,1 C 7,8 C 1,4 km/h
21.12.2012 18:00 6,9 C 85 % 1013,1 hPa 0,0 l/m 0,0 km/h SO 4,6 C 6,9 C 0,0 km/h
21.12.2012 19:00 6,2 C 86 % 1014,2 hPa 0,0 l/m 0,0 km/h S 4,0 C 6,2 C 0,0 km/h
21.12.2012 20:00 6,1 C 85 % 1014,9 hPa 0,0 l/m 5,8 km/h N-NW 3,8 C 6,1 C 3,2 km/h
21.12.2012 21:00 5,8 C 84 % 1015,5 hPa 0,4 l/m 0,0 km/h NO 3,3 C 5,8 C 0,0 km/h
21.12.2012 22:00 5,0 C 83 % 1016,3 hPa 0,0 l/m 0,0 km/h S-SO 2,4 C 5,0 C 0,0 km/h
21.12.2012 23:00 4,8 C 83 % 1016,3 hPa 0,0 l/m 0,0 km/h S-SO 2,2 C 4,8 C 0,0 km/h
22.12.2012 00:00 4,5 C 82 % 1017,2 hPa 0,0 l/m 0,0 km/h S-SO 1,7 C 4,5 C 0,0 km/h
22.12.2012 01:00 4,9 C 80 % 1017,7 hPa 0,0 l/m 0,0 km/h NO 1,7 C 4,9 C 0,0 km/h
22.12.2012 02:00 4,6 C 79 % 1018,1 hPa 0,4 l/m 0,0 km/h S-SO 1,3 C 4,6 C 0,0 km/h
22.12.2012 03:00 4,2 C 78 % 1018,2 hPa 0,0 l/m 0,0 km/h S-SO 0,7 C 4,2 C 0,0 km/h
22.12.2012 04:00 4,5 C 77 % 1018,6 hPa 0,0 l/m 0,0 km/h S-SO 0,8 C 4,5 C 0,0 km/h
22.12.2012 05:00 4,4 C 76 % 1018,4 hPa 0,0 l/m 0,0 km/h S-SO 0,5 C 4,4 C 0,0 km/h
22.12.2012 06:00 4,8 C 75 % 1018,6 hPa 0,0 l/m 0,0 km/h SO 0,8 C 4,8 C 0,0 km/h
22.12.2012 07:00 4,3 C 75 % 1018,2 hPa 0,4 l/m 0,0 km/h SO 0,3 C 4,3 C 0,0 km/h
22.12.2012 08:00 4,4 C 74 % 1018,4 hPa 0,0 l/m 0,0 km/h SO 0,2 C 4,4 C 0,0 km/h
22.12.2012 09:00 4,9 C 73 % 1018,2 hPa 0,0 l/m 0,0 km/h SO 0,5 C 4,9 C 0,0 km/h
22.12.2012 10:00 6,8 C 69 % 1018,6 hPa 0,0 l/m 0,0 km/h SO 1,5 C 6,8 C 0,0 km/h
22.12.2012 11:00 9,3 C 64 % 1017,9 hPa 0,0 l/m 0,0 km/h W 2,8 C 9,3 C 0,0 km/h
22.12.2012 12:00 9,1 C 86 % 1017,2 hPa 0,0 l/m 0,0 km/h W 6,9 C 9,1 C 0,0 km/h
22.12.2012 13:00 8,9 C 83 % 1015,8 hPa 0,0 l/m 0,0 km/h W 6,2 C 8,9 C 0,0 km/h
22.12.2012 14:00 8,4 C 82 % 1015,1 hPa 0,0 l/m 0,0 km/h SW 5,5 C 8,4 C 0,0 km/h
22.12.2012 15:00 7,8 C 79 % 1014,8 hPa 0,0 l/m 7,8 km/h S 4,4 C 6,7 C 4,3 km/h
22.12.2012 16:00 6,6 C 83 % 1014,0 hPa 0,0 l/m 8,4 km/h SW 3,9 C 5,0 C 4,7 km/h
22.12.2012 17:00 6,1 C 85 % 1012,8 hPa 0,4 l/m 0,0 km/h O-SO 3,8 C 6,1 C 0,0 km/h
22.12.2012 18:00 5,4 C 86 % 1011,8 hPa 1,1 l/m 0,0 km/h NO 3,3 C 5,4 C 0,0 km/h
22.12.2012 19:00 5,6 C 84 % 1011,3 hPa 1,4 l/m 0,0 km/h SW 3,1 C 5,6 C 0,0 km/h
22.12.2012 20:00 6,4 C 81 % 1010,9 hPa 0,7 l/m 8,4 km/h W-SW 3,4 C 4,8 C 4,7 km/h
22.12.2012 21:00 7,9 C 81 % 1011,0 hPa 0,7 l/m 23,3 km/h W 4,8 C -0,5 C 13,0 km/h
22.12.2012 22:00 8,6 C 81 % 1010,8 hPa 1,1 l/m 20,7 km/h W-SW 5,5 C 1,2 C 11,5 km/h
22.12.2012 23:00 9,3 C 81 % 1010,6 hPa 1,1 l/m 14,9 km/h W-NW 6,2 C 4,3 C 8,3 km/h
23.12.2012 00:00 10,4 C 86 % 1010,7 hPa 0,0 l/m 20,1 km/h W 8,2 C 3,8 C 11,2 km/h
23.12.2012 01:00 10,4 C 84 % 1011,5 hPa 0,0 l/m 10,4 km/h W 7,8 C 7,8 C 5,8 km/h
23.12.2012 02:00 10,5 C 82 % 1011,6 hPa 0,4 l/m 8,4 km/h W 7,6 C 9,1 C 4,7 km/h
23.12.2012 03:00 11,4 C 86 % 1012,1 hPa 0,0 l/m 20,1 km/h W-SW 9,1 C 5,1 C 11,2 km/h
23.12.2012 04:00 11,6 C 86 % 1012,4 hPa 0,0 l/m 13,6 km/h W-NW 9,3 C 7,6 C 7,6 km/h
23.12.2012 05:00 11,5 C 86 % 1012,5 hPa 0,0 l/m 24,0 km/h W 9,2 C 4,1 C 13,3 km/h
23.12.2012 06:00 11,8 C 85 % 1012,7 hPa 0,0 l/m 31,8 km/h W 9,4 C 2,8 C 17,6 km/h
23.12.2012 07:00 11,9 C 85 % 1013,4 hPa 0,0 l/m 42,8 km/h W-SW 9,5 C 1,4 C 23,8 km/h
23.12.2012 08:00 12,1 C 84 % 1013,7 hPa 0,0 l/m 22,0 km/h W 9,5 C 5,4 C 12,2 km/h
23.12.2012 09:00 12,3 C 82 % 1013,8 hPa 0,0 l/m 21,4 km/h W 9,3 C 5,9 C 11,9 km/h
23.12.2012 10:00 12,9 C 80 % 1014,1 hPa 0,0 l/m 31,8 km/h W 9,5 C 4,4 C 17,6 km/h
23.12.2012 11:00 13,3 C 78 % 1014,1 hPa 0,0 l/m 24,6 km/h W-NW 9,5 C 6,4 C 13,7 km/h
23.12.2012 12:00 13,6 C 77 % 1014,0 hPa 0,0 l/m 27,2 km/h W-NW 9,6 C 6,2 C 15,1 km/h
23.12.2012 13:00 14,2 C 74 % 1013,4 hPa 0,0 l/m 31,1 km/h W 9,6 C 6,4 C 17,3 km/h
23.12.2012 14:00 14,4 C 72 % 1012,9 hPa 0,0 l/m 18,8 km/h W 9,4 C 9,3 C 10,4 km/h
23.12.2012 15:00 14,4 C 73 % 1013,2 hPa 0,0 l/m 23,3 km/h W-SW 9,6 C 8,2 C 13,0 km/h
23.12.2012 16:00 13,9 C 73 % 1013,5 hPa 0,0 l/m 34,3 km/h NW 9,1 C 5,4 C 19,1 km/h
23.12.2012 17:00 13,0 C 75 % 1013,5 hPa 0,0 l/m 18,8 km/h W 8,7 C 7,5 C 10,4 km/h
23.12.2012 18:00 12,7 C 75 % 1014,0 hPa 0,0 l/m 4,5 km/h NW 8,4 C 12,7 C 2,5 km/h
23.12.2012 19:00 12,5 C 76 % 1014,5 hPa 0,0 l/m 22,7 km/h W-SW 8,4 C 5,8 C 12,6 km/h
23.12.2012 20:00 12,6 C 75 % 1014,4 hPa 0,0 l/m 18,8 km/h W 8,3 C 7,0 C 10,4 km/h
23.12.2012 21:00 13,0 C 72 % 1014,4 hPa 0,0 l/m 18,8 km/h S-SW 8,1 C 7,5 C 10,4 km/h
23.12.2012 22:00 12,4 C 73 % 1014,1 hPa 0,0 l/m 10,4 km/h W-NW 7,7 C 10,0 C 5,8 km/h
23.12.2012 23:00 10,6 C 75 % 1014,0 hPa 0,0 l/m 0,0 km/h O-NO 6,4 C 10,6 C 0,0 km/h
Min-Datum _ 20.12.12 22.12.12 17.12.12 - 18.12.12 - 20.12.12 18.12.12 18.12.12
_ Min-Zeit 07:19 11:19 03:19 - 04:19 - 07:19 03:19 04:19
Minimum _ -2,6 C 64 % 1005,5 hPa - 0,0 km/h - -5,1 C -5,9 C 0,0 km/h
Max-Datum _ 23.12.12 17.12.12 19.12.12 22.12.12 23.12.12 - 23.12.12 23.12.12 23.12.12
_ Max-Zeit 14:19 00:19 10:19 19:19 07:19 - 12:19 18:19 07:19
Maximum _ 14,4 C 86 % 1021,2 hPa 1,4 l/m 42,8 km/h
W-SW
- 9,6 C 12,7 C 23,8 km/h
W-SW
Durchschnitt _ 6,2 C 81 % 1013,2 hPa #18,9 l/m 7,7 km/h W 3,2 C 3,9 C 4,3 km/h
www.sexauwetter.de